sensor_id;sensor_type;location;lat;lon;timestamp;pressure;altitude;pressure_sealevel;temperature;humidity
21129;BME280;10722;51.910;8.352;2022-07-29T00:00:27;100927.66;;;20.19;52.86
21129;BME280;10722;51.910;8.352;2022-07-29T00:03:13;100931.09;;;20.21;52.88
21129;BME280;10722;51.910;8.352;2022-07-29T00:05:58;100927.59;;;20.21;53.05
21129;BME280;10722;51.910;8.352;2022-07-29T00:08:45;100921.63;;;20.12;53.29
21129;BME280;10722;51.910;8.352;2022-07-29T00:11:30;100921.69;;;20.11;52.80
21129;BME280;10722;51.910;8.352;2022-07-29T00:14:15;100913.81;;;20.09;53.07
21129;BME280;10722;51.910;8.352;2022-07-29T00:17:01;100919.84;;;20.14;53.52
21129;BME280;10722;51.910;8.352;2022-07-29T00:19:47;100919.91;;;20.11;53.17
21129;BME280;10722;51.910;8.352;2022-07-29T00:22:32;100933.94;;;20.10;53.97
21129;BME280;10722;51.910;8.352;2022-07-29T00:25:17;100919.25;;;20.00;53.81
21129;BME280;10722;51.910;8.352;2022-07-29T00:28:03;100920.84;;;20.09;53.89
21129;BME280;10722;51.910;8.352;2022-07-29T00:30:48;100925.97;;;20.15;54.00
21129;BME280;10722;51.910;8.352;2022-07-29T00:33:33;100914.59;;;20.14;53.66
21129;BME280;10722;51.910;8.352;2022-07-29T00:36:18;100915.50;;;20.13;53.43
21129;BME280;10722;51.910;8.352;2022-07-29T00:39:04;100924.19;;;20.15;54.06
21129;BME280;10722;51.910;8.352;2022-07-29T00:41:50;100946.28;;;20.05;55.68
21129;BME280;10722;51.910;8.352;2022-07-29T00:44:39;100920.84;;;20.09;54.25
21129;BME280;10722;51.910;8.352;2022-07-29T00:47:24;100918.25;;;20.06;54.03
21129;BME280;10722;51.910;8.352;2022-07-29T00:50:11;100920.03;;;20.05;54.70
21129;BME280;10722;51.910;8.352;2022-07-29T00:52:57;100924.38;;;20.06;55.39
21129;BME280;10722;51.910;8.352;2022-07-29T00:55:43;100911.16;;;20.11;54.27
21129;BME280;10722;51.910;8.352;2022-07-29T00:58:28;100895.44;;;20.09;54.08
21129;BME280;10722;51.910;8.352;2022-07-29T01:01:13;100889.44;;;20.03;54.14
21129;BME280;10722;51.910;8.352;2022-07-29T01:03:59;100907.91;;;19.98;55.47
21129;BME280;10722;51.910;8.352;2022-07-29T01:06:44;100893.88;;;19.99;54.71
21129;BME280;10722;51.910;8.352;2022-07-29T01:09:31;100880.84;;;19.95;54.19
21129;BME280;10722;51.910;8.352;2022-07-29T01:12:30;100863.38;;;19.93;54.10
21129;BME280;10722;51.910;8.352;2022-07-29T01:15:16;100869.59;;;19.88;54.14
21129;BME280;10722;51.910;8.352;2022-07-29T01:18:28;100866.13;;;19.84;54.22
21129;BME280;10722;51.910;8.352;2022-07-29T01:21:40;100872.38;;;19.79;54.79
21129;BME280;10722;51.910;8.352;2022-07-29T01:27:45;100872.53;;;19.71;55.40
21129;BME280;10722;51.910;8.352;2022-07-29T01:30:35;100855.81;;;19.74;54.50
21129;BME280;10722;51.910;8.352;2022-07-29T01:33:24;100879.50;;;19.72;56.48
21129;BME280;10722;51.910;8.352;2022-07-29T01:36:13;100853.19;;;19.75;55.27
21129;BME280;10722;51.910;8.352;2022-07-29T01:39:16;100846.34;;;19.66;54.92
21129;BME280;10722;51.910;8.352;2022-07-29T01:45:23;100855.03;;;19.70;56.10
21129;BME280;10722;51.910;8.352;2022-07-29T01:48:16;100848.91;;;19.69;55.49
21129;BME280;10722;51.910;8.352;2022-07-29T01:51:26;100855.09;;;19.64;56.08
21129;BME280;10722;51.910;8.352;2022-07-29T01:57:44;100853.38;;;19.66;56.15
21129;BME280;10722;51.910;8.352;2022-07-29T02:00:31;100830.56;;;19.68;55.27
21129;BME280;10722;51.910;8.352;2022-07-29T02:03:17;100822.81;;;19.60;55.66
21129;BME280;10722;51.910;8.352;2022-07-29T02:06:04;100817.63;;;19.57;55.50
21129;BME280;10722;51.910;8.352;2022-07-29T02:08:52;100832.47;;;19.57;55.85
21129;BME280;10722;51.910;8.352;2022-07-29T02:11:40;100827.28;;;19.54;55.89
21129;BME280;10722;51.910;8.352;2022-07-29T02:14:28;100836.91;;;19.53;56.79
21129;BME280;10722;51.910;8.352;2022-07-29T02:20:37;100826.59;;;19.44;56.11
21129;BME280;10722;51.910;8.352;2022-07-29T02:23:24;100818.66;;;19.48;56.23
21129;BME280;10722;51.910;8.352;2022-07-29T02:26:10;100811.72;;;19.44;56.08
21129;BME280;10722;51.910;8.352;2022-07-29T02:28:58;100823.06;;;19.46;56.30
21129;BME280;10722;51.910;8.352;2022-07-29T02:31:45;100825.75;;;19.42;57.19
21129;BME280;10722;51.910;8.352;2022-07-29T02:34:33;100832.06;;;19.32;58.46
21129;BME280;10722;51.910;8.352;2022-07-29T02:37:20;100818.91;;;19.33;57.21
21129;BME280;10722;51.910;8.352;2022-07-29T02:40:10;100840.00;;;19.27;58.88
21129;BME280;10722;51.910;8.352;2022-07-29T02:42:56;100822.44;;;19.32;57.78
21129;BME280;10722;51.910;8.352;2022-07-29T02:45:42;100809.31;;;19.31;56.76
21129;BME280;10722;51.910;8.352;2022-07-29T02:48:38;100826.88;;;19.27;58.14
21129;BME280;10722;51.910;8.352;2022-07-29T02:51:29;100843.47;;;19.27;58.43
21129;BME280;10722;51.910;8.352;2022-07-29T02:55:11;100856.69;;;19.21;61.36
21129;BME280;10722;51.910;8.352;2022-07-29T02:58:03;100861.41;;;18.99;62.91
21129;BME280;10722;51.910;8.352;2022-07-29T03:00:51;100863.13;;;19.02;63.39
21129;BME280;10722;51.910;8.352;2022-07-29T03:03:38;100858.78;;;18.99;63.56
21129;BME280;10722;51.910;8.352;2022-07-29T03:06:26;100859.78;;;18.91;63.78
21129;BME280;10722;51.910;8.352;2022-07-29T03:09:23;100843.41;;;18.75;62.97
21129;BME280;10722;51.910;8.352;2022-07-29T03:12:09;100839.03;;;18.72;62.36
21129;BME280;10722;51.910;8.352;2022-07-29T03:14:56;100838.13;;;18.78;62.27
21129;BME280;10722;51.910;8.352;2022-07-29T03:17:41;100830.28;;;18.76;61.63
21129;BME280;10722;51.910;8.352;2022-07-29T03:20:28;100825.06;;;18.76;61.64
21129;BME280;10722;51.910;8.352;2022-07-29T03:23:18;100820.69;;;18.72;60.78
21129;BME280;10722;51.910;8.352;2022-07-29T03:26:04;100824.25;;;18.70;60.98
21129;BME280;10722;51.910;8.352;2022-07-29T03:28:49;100818.97;;;18.71;60.82
21129;BME280;10722;51.910;8.352;2022-07-29T03:31:35;100828.59;;;18.69;61.31
21129;BME280;10722;51.910;8.352;2022-07-29T03:34:22;100830.38;;;18.69;61.42
21129;BME280;10722;51.910;8.352;2022-07-29T03:37:07;100822.53;;;18.67;60.48
21129;BME280;10722;51.910;8.352;2022-07-29T03:39:55;100809.41;;;18.69;60.05
21129;BME280;10722;51.910;8.352;2022-07-29T03:42:42;100804.25;;;18.63;60.21
21129;BME280;10722;51.910;8.352;2022-07-29T03:45:30;100810.34;;;18.65;60.43
21129;BME280;10722;51.910;8.352;2022-07-29T03:48:17;100813.91;;;18.59;60.19
21129;BME280;10722;51.910;8.352;2022-07-29T03:51:04;100822.69;;;18.56;60.81
21129;BME280;10722;51.910;8.352;2022-07-29T03:53:51;100848.84;;;18.59;63.11
21129;BME280;10722;51.910;8.352;2022-07-29T03:56:39;100817.41;;;18.59;61.94
21129;BME280;10722;51.910;8.352;2022-07-29T03:59:26;100802.63;;;18.52;60.52
21129;BME280;10722;51.910;8.352;2022-07-29T04:02:12;100801.78;;;18.52;60.48
21129;BME280;10722;51.910;8.352;2022-07-29T04:05:12;100812.31;;;18.49;60.84
21129;BME280;10722;51.910;8.352;2022-07-29T04:07:57;100816.78;;;18.41;61.21
21129;BME280;10722;51.910;8.352;2022-07-29T04:10:43;100822.81;;;18.46;61.94
21129;BME280;10722;51.910;8.352;2022-07-29T04:13:28;100831.53;;;18.48;62.23
21129;BME280;10722;51.910;8.352;2022-07-29T04:16:13;100848.97;;;18.49;63.52
21129;BME280;10722;51.910;8.352;2022-07-29T04:18:59;100869.81;;;18.58;65.98
21129;BME280;10722;51.910;8.352;2022-07-29T04:21:44;100876.00;;;18.52;67.77
21129;BME280;10722;51.910;8.352;2022-07-29T04:24:30;100830.59;;;18.52;63.47
21129;BME280;10722;51.910;8.352;2022-07-29T04:27:15;100819.25;;;18.53;62.25
21129;BME280;10722;51.910;8.352;2022-07-29T04:30:00;100808.78;;;18.53;61.60
21129;BME280;10722;51.910;8.352;2022-07-29T04:32:46;100835.88;;;18.49;63.68
21129;BME280;10722;51.910;8.352;2022-07-29T04:35:34;100850.72;;;18.48;65.84
21129;BME280;10722;51.910;8.352;2022-07-29T04:38:22;100807.31;;;18.30;63.05
21129;BME280;10722;51.910;8.352;2022-07-29T04:41:08;100818.75;;;18.25;63.39
21129;BME280;10722;51.910;8.352;2022-07-29T04:43:55;100838.72;;;18.32;64.50
21129;BME280;10722;51.910;8.352;2022-07-29T04:46:41;100847.38;;;18.37;65.66
21129;BME280;10722;51.910;8.352;2022-07-29T04:49:26;100809.81;;;18.40;63.06
21129;BME280;10722;51.910;8.352;2022-07-29T04:52:12;100831.53;;;18.46;63.89
21129;BME280;10722;51.910;8.352;2022-07-29T04:54:57;100821.88;;;18.50;63.35
21129;BME280;10722;51.910;8.352;2022-07-29T04:57:42;100817.41;;;18.58;63.24
21129;BME280;10722;51.910;8.352;2022-07-29T05:00:28;100800.78;;;18.60;62.04
21129;BME280;10722;51.910;8.352;2022-07-29T05:03:17;100800.72;;;18.65;62.04
21129;BME280;10722;51.910;8.352;2022-07-29T05:06:03;100798.09;;;18.65;61.65
21129;BME280;10722;51.910;8.352;2022-07-29T05:08:48;100816.41;;;18.67;62.18
21129;BME280;10722;51.910;8.352;2022-07-29T05:11:33;100789.34;;;18.68;61.22
21129;BME280;10722;51.910;8.352;2022-07-29T05:14:19;100795.44;;;18.68;61.41
21129;BME280;10722;51.910;8.352;2022-07-29T05:17:14;100798.06;;;18.67;61.74
21129;BME280;10722;51.910;8.352;2022-07-29T05:19:59;100808.59;;;18.65;62.32
21129;BME280;10722;51.910;8.352;2022-07-29T05:22:44;100813.81;;;18.65;63.05
21129;BME280;10722;51.910;8.352;2022-07-29T05:25:29;100797.28;;;18.60;63.23
21129;BME280;10722;51.910;8.352;2022-07-29T05:28:28;100799.09;;;18.56;62.41
21129;BME280;10722;51.910;8.352;2022-07-29T05:31:13;100786.84;;;18.58;62.12
21129;BME280;10722;51.910;8.352;2022-07-29T05:33:59;100803.53;;;18.53;63.11
21129;BME280;10722;51.910;8.352;2022-07-29T05:36:45;100797.28;;;18.62;62.61
21129;BME280;10722;51.910;8.352;2022-07-29T05:39:30;100806.72;;;18.72;62.96
21129;BME280;10722;51.910;8.352;2022-07-29T05:42:33;100811.00;;;18.82;62.56
21129;BME280;10722;51.910;8.352;2022-07-29T05:45:18;100820.63;;;18.81;63.40
21129;BME280;10722;51.910;8.352;2022-07-29T05:48:03;100850.25;;;18.84;65.97
21129;BME280;10722;51.910;8.352;2022-07-29T05:50:48;100843.16;;;18.92;65.58
21129;BME280;10722;51.910;8.352;2022-07-29T05:53:34;100870.22;;;18.94;67.75
21129;BME280;10722;51.910;8.352;2022-07-29T05:56:19;100861.56;;;18.89;68.35
21129;BME280;10722;51.910;8.352;2022-07-29T05:59:05;100843.94;;;18.98;65.66
21129;BME280;10722;51.910;8.352;2022-07-29T06:02:02;100875.41;;;18.98;68.78
21129;BME280;10722;51.910;8.352;2022-07-29T06:04:48;100845.63;;;19.04;66.59
21129;BME280;10722;51.910;8.352;2022-07-29T06:07:33;100846.22;;;19.21;65.54
21129;BME280;10722;51.910;8.352;2022-07-29T06:10:20;100827.78;;;19.24;64.22
21129;BME280;10722;51.910;8.352;2022-07-29T06:13:10;100838.16;;;19.32;63.98
21129;BME280;10722;51.910;8.352;2022-07-29T06:15:55;100851.19;;;19.37;65.78
21129;BME280;10722;51.910;8.352;2022-07-29T06:18:41;100859.00;;;19.41;65.60
21129;BME280;10722;51.910;8.352;2022-07-29T06:21:25;100882.59;;;19.41;66.92
21129;BME280;10722;51.910;8.352;2022-07-29T06:24:12;100838.66;;;19.54;63.51
21129;BME280;10722;51.910;8.352;2022-07-29T06:26:58;100828.84;;;19.67;62.69
21129;BME280;10722;51.910;8.352;2022-07-29T06:29:43;100870.00;;;19.63;65.54
21129;BME280;10722;51.910;8.352;2022-07-29T06:32:30;100894.66;;;19.53;69.69
21129;BME280;10722;51.910;8.352;2022-07-29T06:35:16;100867.38;;;19.63;68.71
21129;BME280;10722;51.910;8.352;2022-07-29T06:38:21;100877.06;;;19.58;69.39
21129;BME280;10722;51.910;8.352;2022-07-29T06:41:16;100872.88;;;19.48;70.34
21129;BME280;10722;51.910;8.352;2022-07-29T06:44:01;100859.47;;;19.66;69.40
21129;BME280;10722;51.910;8.352;2022-07-29T06:46:46;100851.34;;;19.80;67.71
21129;BME280;10722;51.910;8.352;2022-07-29T06:49:31;100846.66;;;19.96;66.75
21129;BME280;10722;51.910;8.352;2022-07-29T06:52:16;100815.13;;;19.96;64.26
21129;BME280;10722;51.910;8.352;2022-07-29T06:55:02;100826.34;;;20.06;64.42
21129;BME280;10722;51.910;8.352;2022-07-29T06:57:49;100810.66;;;20.03;62.92
21129;BME280;10722;51.910;8.352;2022-07-29T07:00:35;100808.16;;;19.97;62.50
21129;BME280;10722;51.910;8.352;2022-07-29T07:03:20;100810.84;;;19.93;62.69
21129;BME280;10722;51.910;8.352;2022-07-29T07:06:05;100826.69;;;19.89;63.18
21129;BME280;10722;51.910;8.352;2022-07-29T07:08:53;100806.53;;;19.89;61.59
21129;BME280;10722;51.910;8.352;2022-07-29T07:11:38;100808.31;;;19.87;61.32
21129;BME280;10722;51.910;8.352;2022-07-29T07:14:23;100817.91;;;19.90;61.55
21129;BME280;10722;51.910;8.352;2022-07-29T07:17:26;100831.75;;;19.98;61.53
21129;BME280;10722;51.910;8.352;2022-07-29T07:20:11;100822.88;;;20.04;60.15
21129;BME280;10722;51.910;8.352;2022-07-29T07:22:57;100829.00;;;20.04;61.15
21129;BME280;10722;51.910;8.352;2022-07-29T07:25:43;100802.63;;;20.10;58.60
21129;BME280;10722;51.910;8.352;2022-07-29T07:28:28;100843.66;;;20.16;60.95
21129;BME280;10722;51.910;8.352;2022-07-29T07:31:14;100836.59;;;20.18;60.38
21129;BME280;10722;51.910;8.352;2022-07-29T07:33:59;100871.38;;;20.31;62.94
21129;BME280;10722;51.910;8.352;2022-07-29T07:36:44;100819.66;;;20.33;59.42
21129;BME280;10722;51.910;8.352;2022-07-29T07:39:30;100822.88;;;20.47;58.91
21129;BME280;10722;51.910;8.352;2022-07-29T07:42:16;100875.34;;;20.50;62.07
21129;BME280;10722;51.910;8.352;2022-07-29T07:45:01;100825.31;;;20.56;59.64
21129;BME280;10722;51.910;8.352;2022-07-29T07:48:00;100844.56;;;20.58;60.81
21129;BME280;10722;51.910;8.352;2022-07-29T07:50:45;100834.53;;;20.76;60.54
21129;BME280;10722;51.910;8.352;2022-07-29T07:53:31;100820.13;;;20.92;58.71
21129;BME280;10722;51.910;8.352;2022-07-29T07:56:16;100816.44;;;20.99;58.28
21129;BME280;10722;51.910;8.352;2022-07-29T07:59:02;100806.34;;;21.17;58.35
21129;BME280;10722;51.910;8.352;2022-07-29T08:01:47;100798.25;;;21.26;56.90
21129;BME280;10722;51.910;8.352;2022-07-29T08:04:40;100829.53;;;21.38;58.34
21129;BME280;10722;51.910;8.352;2022-07-29T08:07:25;100812.19;;;21.97;56.25
21129;BME280;10722;51.910;8.352;2022-07-29T08:10:11;100793.66;;;22.87;53.65
21129;BME280;10722;51.910;8.352;2022-07-29T08:12:56;100772.59;;;23.89;50.87
21129;BME280;10722;51.910;8.352;2022-07-29T08:15:42;100740.91;;;24.34;48.69
21129;BME280;10722;51.910;8.352;2022-07-29T08:18:29;100729.91;;;24.89;47.07
21129;BME280;10722;51.910;8.352;2022-07-29T08:21:15;100764.94;;;25.37;48.11
21129;BME280;10722;51.910;8.352;2022-07-29T08:24:00;100721.72;;;25.57;45.31
21129;BME280;10722;51.910;8.352;2022-07-29T08:26:51;100746.84;;;26.25;45.22
21129;BME280;10722;51.910;8.352;2022-07-29T08:29:38;100767.22;;;26.80;45.50
21129;BME280;10722;51.910;8.352;2022-07-29T08:32:30;100740.63;;;27.34;43.50
21129;BME280;10722;51.910;8.352;2022-07-29T08:35:35;100732.25;;;27.75;43.15
21129;BME280;10722;51.910;8.352;2022-07-29T08:38:20;100724.59;;;27.86;42.16
21129;BME280;10722;51.910;8.352;2022-07-29T08:41:06;100727.31;;;27.84;41.77
21129;BME280;10722;51.910;8.352;2022-07-29T08:43:51;100707.22;;;27.96;40.77
21129;BME280;10722;51.910;8.352;2022-07-29T08:46:38;100736.09;;;28.18;42.31
21129;BME280;10722;51.910;8.352;2022-07-29T08:49:23;100731.72;;;28.65;41.40
21129;BME280;10722;51.910;8.352;2022-07-29T08:52:12;100701.28;;;28.38;39.75
21129;BME280;10722;51.910;8.352;2022-07-29T08:54:57;100744.16;;;29.10;40.84
21129;BME280;10722;51.910;8.352;2022-07-29T08:57:44;100723.03;;;29.66;39.88
21129;BME280;10722;51.910;8.352;2022-07-29T09:00:41;100715.09;;;29.93;38.73
21129;BME280;10722;51.910;8.352;2022-07-29T09:03:34;100715.78;;;29.97;38.17
21129;BME280;10722;51.910;8.352;2022-07-29T09:06:21;100720.13;;;30.26;38.12
21129;BME280;10722;51.910;8.352;2022-07-29T09:09:07;100761.34;;;29.79;41.55
21129;BME280;10722;51.910;8.352;2022-07-29T09:11:52;100720.88;;;30.28;39.05
21129;BME280;10722;51.910;8.352;2022-07-29T09:14:38;100692.66;;;30.78;36.63
21129;BME280;10722;51.910;8.352;2022-07-29T09:17:59;100726.38;;;30.67;38.46
21129;BME280;10722;51.910;8.352;2022-07-29T09:20:51;100698.25;;;31.01;36.86
21129;BME280;10722;51.910;8.352;2022-07-29T09:23:36;100712.25;;;31.04;37.15
21129;BME280;10722;51.910;8.352;2022-07-29T09:26:27;100701.91;;;31.13;36.45
21129;BME280;10722;51.910;8.352;2022-07-29T09:29:14;100654.94;;;30.16;35.71
21129;BME280;10722;51.910;8.352;2022-07-29T09:32:00;100674.28;;;29.49;37.23
21129;BME280;10722;51.910;8.352;2022-07-29T09:34:45;100702.00;;;30.17;37.66
21129;BME280;10722;51.910;8.352;2022-07-29T09:37:30;100671.94;;;30.42;35.93
21129;BME280;10722;51.910;8.352;2022-07-29T09:40:24;100695.31;;;30.38;36.93
21129;BME280;10722;51.910;8.352;2022-07-29T09:43:12;100720.06;;;29.70;39.01
21129;BME280;10722;51.910;8.352;2022-07-29T09:46:09;100695.97;;;29.15;38.77
21129;BME280;10722;51.910;8.352;2022-07-29T09:49:10;100706.72;;;29.42;39.22
21129;BME280;10722;51.910;8.352;2022-07-29T09:52:07;100679.72;;;29.62;37.40
21129;BME280;10722;51.910;8.352;2022-07-29T09:54:52;100704.97;;;30.12;37.84
21129;BME280;10722;51.910;8.352;2022-07-29T09:57:37;100697.50;;;30.99;35.30
21129;BME280;10722;51.910;8.352;2022-07-29T10:00:23;100684.03;;;30.60;36.04
21129;BME280;10722;51.910;8.352;2022-07-29T10:03:08;100670.03;;;30.57;35.70
21129;BME280;10722;51.910;8.352;2022-07-29T10:06:23;100692.34;;;29.87;37.43
21129;BME280;10722;51.910;8.352;2022-07-29T10:09:09;100706.91;;;29.39;38.47
21129;BME280;10722;51.910;8.352;2022-07-29T10:12:08;100703.41;;;29.67;37.93
21129;BME280;10722;51.910;8.352;2022-07-29T10:14:54;100687.88;;;29.31;37.60
21129;BME280;10722;51.910;8.352;2022-07-29T10:17:40;100709.50;;;29.83;38.23
21129;BME280;10722;51.910;8.352;2022-07-29T10:20:27;100705.97;;;29.97;37.86
21129;BME280;10722;51.910;8.352;2022-07-29T10:23:12;100684.94;;;29.49;37.70
21129;BME280;10722;51.910;8.352;2022-07-29T10:25:57;100698.13;;;29.22;38.18
21129;BME280;10722;51.910;8.352;2022-07-29T10:28:43;100730.06;;;29.81;39.66
21129;BME280;10722;51.910;8.352;2022-07-29T10:31:37;100685.25;;;29.74;37.45
21129;BME280;10722;51.910;8.352;2022-07-29T10:37:52;100717.31;;;29.43;40.10
21129;BME280;10722;51.910;8.352;2022-07-29T10:44:14;100689.44;;;30.19;37.17
21129;BME280;10722;51.910;8.352;2022-07-29T10:47:01;100712.75;;;30.57;38.29
21129;BME280;10722;51.910;8.352;2022-07-29T10:49:58;100672.94;;;30.54;36.83
21129;BME280;10722;51.910;8.352;2022-07-29T10:52:55;100706.28;;;31.26;37.19
21129;BME280;10722;51.910;8.352;2022-07-29T10:55:41;100737.22;;;31.56;38.60
21129;BME280;10722;51.910;8.352;2022-07-29T10:58:27;100701.88;;;32.02;36.15
21129;BME280;10722;51.910;8.352;2022-07-29T11:01:29;100733.44;;;32.34;37.62
21129;BME280;10722;51.910;8.352;2022-07-29T11:07:29;100681.91;;;31.18;36.75
21129;BME280;10722;51.910;8.352;2022-07-29T11:10:30;100691.97;;;31.27;36.77
21129;BME280;10722;51.910;8.352;2022-07-29T11:13:54;100726.88;;;30.86;39.60
21129;BME280;10722;51.910;8.352;2022-07-29T11:17:07;100713.88;;;29.84;40.01
21129;BME280;10722;51.910;8.352;2022-07-29T11:23:28;100721.13;;;30.38;39.65
21129;BME280;10722;51.910;8.352;2022-07-29T11:26:20;100683.59;;;30.54;37.63
21129;BME280;10722;51.910;8.352;2022-07-29T11:29:21;100680.72;;;30.03;38.31
21129;BME280;10722;51.910;8.352;2022-07-29T11:32:41;100735.91;;;29.88;41.20
21129;BME280;10722;51.910;8.352;2022-07-29T11:36:10;100695.53;;;30.48;38.17
21129;BME280;10722;51.910;8.352;2022-07-29T11:39:26;100713.88;;;30.67;39.49
21129;BME280;10722;51.910;8.352;2022-07-29T11:45:44;100698.47;;;29.75;39.58
21129;BME280;10722;51.910;8.352;2022-07-29T11:48:49;100693.84;;;29.05;40.39
21129;BME280;10722;51.910;8.352;2022-07-29T11:51:41;100690.72;;;28.97;40.23
21129;BME280;10722;51.910;8.352;2022-07-29T11:54:50;100707.72;;;29.11;40.44
21129;BME280;10722;51.910;8.352;2022-07-29T11:57:58;100702.63;;;29.50;39.83
21129;BME280;10722;51.910;8.352;2022-07-29T12:01:04;100679.22;;;29.56;38.24
21129;BME280;10722;51.910;8.352;2022-07-29T12:04:02;100713.09;;;30.11;39.39
21129;BME280;10722;51.910;8.352;2022-07-29T12:06:51;100695.69;;;31.25;36.65
21129;BME280;10722;51.910;8.352;2022-07-29T12:09:36;100677.97;;;31.49;35.52
21129;BME280;10722;51.910;8.352;2022-07-29T12:12:26;100676.06;;;31.52;36.13
21129;BME280;10722;51.910;8.352;2022-07-29T12:17:57;100667.25;;;31.11;36.16
21129;BME280;10722;51.910;8.352;2022-07-29T12:20:48;100659.50;;;30.68;36.05
21129;BME280;10722;51.910;8.352;2022-07-29T12:23:34;100700.38;;;30.56;38.89
21129;BME280;10722;51.910;8.352;2022-07-29T12:26:25;100684.16;;;30.32;38.32
21129;BME280;10722;51.910;8.352;2022-07-29T12:29:15;100682.38;;;30.18;38.74
21129;BME280;10722;51.910;8.352;2022-07-29T12:32:19;100666.16;;;30.35;36.79
21129;BME280;10722;51.910;8.352;2022-07-29T12:35:09;100672.72;;;31.48;35.76
21129;BME280;10722;51.910;8.352;2022-07-29T12:37:55;100680.00;;;32.08;35.53
21129;BME280;10722;51.910;8.352;2022-07-29T12:40:40;100658.84;;;32.53;33.73
21129;BME280;10722;51.910;8.352;2022-07-29T12:43:26;100653.03;;;32.71;33.21
21129;BME280;10722;51.910;8.352;2022-07-29T12:46:13;100664.00;;;32.20;34.56
21129;BME280;10722;51.910;8.352;2022-07-29T12:48:59;100670.59;;;31.15;36.94
21129;BME280;10722;51.910;8.352;2022-07-29T12:51:48;100666.78;;;30.79;37.79
21129;BME280;10722;51.910;8.352;2022-07-29T12:54:33;100674.63;;;30.55;37.51
21129;BME280;10722;51.910;8.352;2022-07-29T12:57:19;100644.94;;;30.20;36.85
21129;BME280;10722;51.910;8.352;2022-07-29T13:00:10;100664.66;;;29.61;38.78
21129;BME280;10722;51.910;8.352;2022-07-29T13:02:58;100696.06;;;29.27;41.26
21129;BME280;10722;51.910;8.352;2022-07-29T13:05:45;100724.88;;;29.07;43.51
21129;BME280;10722;51.910;8.352;2022-07-29T13:08:33;100740.66;;;28.94;44.15
21129;BME280;10722;51.910;8.352;2022-07-29T13:11:38;100728.38;;;28.29;45.39
21129;BME280;10722;51.910;8.352;2022-07-29T13:17:22;100712.28;;;28.16;44.29
21129;BME280;10722;51.910;8.352;2022-07-29T13:23:54;100702.41;;;27.69;44.06
21129;BME280;10722;51.910;8.352;2022-07-29T13:26:39;100769.72;;;27.70;48.54
21129;BME280;10722;51.910;8.352;2022-07-29T13:29:25;100732.22;;;27.59;46.37
21129;BME280;10722;51.910;8.352;2022-07-29T13:32:31;100756.34;;;27.71;47.57
21129;BME280;10722;51.910;8.352;2022-07-29T13:35:30;100726.72;;;27.46;46.82
21129;BME280;10722;51.910;8.352;2022-07-29T13:38:15;100716.88;;;27.31;46.70
21129;BME280;10722;51.910;8.352;2022-07-29T13:41:01;100715.97;;;27.32;46.84
21129;BME280;10722;51.910;8.352;2022-07-29T13:43:46;100707.84;;;27.50;45.76
21129;BME280;10722;51.910;8.352;2022-07-29T13:46:33;100710.28;;;27.55;45.91
21129;BME280;10722;51.910;8.352;2022-07-29T13:49:23;100717.38;;;27.21;46.86
21129;BME280;10722;51.910;8.352;2022-07-29T13:52:26;100748.75;;;27.31;48.64
21129;BME280;10722;51.910;8.352;2022-07-29T13:55:28;100732.59;;;27.00;47.61
21129;BME280;10722;51.910;8.352;2022-07-29T13:58:14;100751.72;;;27.07;48.84
21129;BME280;10722;51.910;8.352;2022-07-29T14:00:59;100707.28;;;27.28;45.82
21129;BME280;10722;51.910;8.352;2022-07-29T14:03:45;100702.81;;;26.76;46.21
21129;BME280;10722;51.910;8.352;2022-07-29T14:06:30;100706.41;;;26.75;46.87
21129;BME280;10722;51.910;8.352;2022-07-29T14:09:15;100785.34;;;26.89;51.60
21129;BME280;10722;51.910;8.352;2022-07-29T14:12:01;100735.94;;;27.04;48.59
21129;BME280;10722;51.910;8.352;2022-07-29T14:14:46;100736.78;;;27.04;49.07
21129;BME280;10722;51.910;8.352;2022-07-29T14:17:32;100734.81;;;27.08;48.61
21129;BME280;10722;51.910;8.352;2022-07-29T14:20:17;100713.59;;;27.08;46.67
21129;BME280;10722;51.910;8.352;2022-07-29T14:23:02;100742.78;;;27.08;48.34
21129;BME280;10722;51.910;8.352;2022-07-29T14:25:49;100730.84;;;26.99;48.42
21129;BME280;10722;51.910;8.352;2022-07-29T14:28:34;100722.63;;;26.69;48.34
21129;BME280;10722;51.910;8.352;2022-07-29T14:31:25;100704.03;;;26.52;46.75
21129;BME280;10722;51.910;8.352;2022-07-29T14:34:11;100775.31;;;26.77;51.49
21129;BME280;10722;51.910;8.352;2022-07-29T14:36:56;100735.03;;;26.69;48.23
21129;BME280;10722;51.910;8.352;2022-07-29T14:39:42;100703.25;;;26.50;46.59
21129;BME280;10722;51.910;8.352;2022-07-29T14:42:27;100712.78;;;26.54;46.28
21129;BME280;10722;51.910;8.352;2022-07-29T14:45:12;100784.88;;;26.24;51.47
21129;BME280;10722;51.910;8.352;2022-07-29T14:47:57;100761.69;;;25.91;52.13
21129;BME280;10722;51.910;8.352;2022-07-29T14:50:42;100771.94;;;25.99;51.64
21129;BME280;10722;51.910;8.352;2022-07-29T14:53:28;100750.66;;;25.80;50.63
21129;BME280;10722;51.910;8.352;2022-07-29T14:56:13;100752.38;;;26.02;49.93
21129;BME280;10722;51.910;8.352;2022-07-29T14:59:18;100786.72;;;25.84;52.72
21129;BME280;10722;51.910;8.352;2022-07-29T15:02:04;100746.63;;;25.92;49.79
21129;BME280;10722;51.910;8.352;2022-07-29T15:04:49;100806.38;;;25.79;55.73
21129;BME280;10722;51.910;8.352;2022-07-29T15:07:35;100794.06;;;25.78;55.26
21129;BME280;10722;51.910;8.352;2022-07-29T15:10:21;100847.78;;;25.40;61.54
21129;BME280;10722;51.910;8.352;2022-07-29T15:13:09;100790.91;;;25.49;56.28
21129;BME280;10722;51.910;8.352;2022-07-29T15:15:54;100822.28;;;25.58;59.03
21129;BME280;10722;51.910;8.352;2022-07-29T15:18:44;100739.88;;;25.45;53.94
21129;BME280;10722;51.910;8.352;2022-07-29T15:21:29;100727.69;;;25.41;52.07
21129;BME280;10722;51.910;8.352;2022-07-29T15:24:16;100770.72;;;25.26;55.73